• Join FlightAware (Why Join?)
  • Login
  • US Flag 
09:03PM EDT


 

Airport Tracker/Info


-or-


 

Live Flight TrackerFlight Track Log ✈ SWA487 ✈ 09-May-2012 ✈ KMSY - KDEN

Flight Track Log - Related Links

Times and Time Zones

All times are in EDT time to prevent confusion due to time zone crossing. See the SWA487 flight status page for this flight to view local times or setup timezone preferences in your user account.

Time Position Orientation Groundspeed Altitude Reporting Facility
EDT Latitude Longitude Course Direction KTS MPH feet Rate Location/Type
07:25AM 30.0069 -90.2483 324° Northwest 147 169 500  Level Houston Center
07:31AM 30.3142 -90.5064 309° West 306 352 16,500 2,820 Climbing Houston Center
07:32AM 30.3775 -90.5969 312° West 342 394 19,200 2,460 Climbing Houston Center
07:33AM 30.4578 -90.6997 309° West 374 430 21,500 2,400 Climbing Houston Center
07:34AM 30.5272 -90.7981 310° West 388 447 24,000 2,520 Climbing Houston Center
07:35AM 30.5989 -90.8964 313° West 398 458 26,600 2,280 Climbing Houston Center
07:36AM 30.6744 -90.9922 313° West 403 464 28,600 1,920 Climbing Houston Center
07:37AM 30.7522 -91.0908 312° West 408 470 30,500 1,860 Climbing Houston Center
07:38AM 30.8256 -91.1872 312° West 408 470 32,400 1,800 Climbing Houston Center
07:39AM 30.9011 -91.2861 312° West 408 470 34,100 1,680 Climbing Houston Center
07:40AM 30.9742 -91.3803 311° West 408 470 35,800 1,680 Climbing Houston Center
07:41AM 31.0453 -91.4744 312° West 408 470 37,500 1,080 Climbing Houston Center
07:42AM 31.1164 -91.5664 311° West 397 457 38,000 240 Climbing Houston Center
07:43AM 31.1875 -91.6611 311° West 390 449 38,000  Level Houston Center
07:44AM 31.2583 -91.7558 312° West 384 442 38,000  Level Houston Center
07:45AM 31.3311 -91.8506 312° West 384 442 38,000  Level Houston Center
07:46AM 31.4019 -91.9431 312° West 384 442 38,000  Level Houston Center
07:47AM 31.4603 -92.0189 310° West 384 442 38,000  Level Houston Center
07:48AM 31.5392 -92.1286 311° West 390 449 38,000  Level Houston Center
07:49AM 31.6097 -92.2239 312° West 390 449 38,000  Level Houston Center
07:50AM 31.6822 -92.3194 311° West 390 449 38,000  Level Houston Center
07:52AM 31.8456 -92.5372 313° West 398 458 38,000  Level Fort Worth Center
07:53AM 31.9200 -92.6311 309° West 398 458 38,000  Level Fort Worth Center
07:54AM 31.9908 -92.7328 311° West 398 458 38,000  Level Fort Worth Center
07:55AM 32.0631 -92.8294 311° West 398 458 38,000  Level Fort Worth Center
07:56AM 32.1356 -92.9289 311° West 398 458 38,000  Level Fort Worth Center
07:57AM 32.2081 -93.0283 312° West 398 458 38,000  Level Fort Worth Center
07:58AM 32.2714 -93.1114 311° West 398 458 38,000  Level Fort Worth Center
07:59AM 32.3436 -93.2111 311° West 393 452 38,000  Level Fort Worth Center
08:00AM 32.4158 -93.3111 311° West 393 452 38,000  Level Fort Worth Center
08:01AM 32.4881 -93.4114 310° West 393 452 38,000  Level Fort Worth Center
08:02AM 32.5600 -93.5142 312° West 398 458 38,000  Level Fort Worth Center
08:03AM 32.6406 -93.6217 309° West 398 458 38,000  Level Fort Worth Center
08:04AM 32.7125 -93.7272 311° West 403 464 38,000  Level Fort Worth Center
08:05AM 32.7886 -93.8303 310° West 408 470 38,000  Level Fort Worth Center
08:06AM 32.8606 -93.9339 310° West 413 475 38,000  Level Fort Worth Center
08:07AM 32.9322 -94.0375 311° West 413 475 38,000  Level Fort Worth Center
08:08AM 33.0058 -94.1386 310° West 413 475 38,000  Level Fort Worth Center
08:09AM 33.0817 -94.2450 310° West 413 475 38,000  Level Fort Worth Center
08:10AM 33.1550 -94.3492 310° West 413 475 38,000  Level Fort Worth Center
08:11AM 33.2264 -94.4508 311° West 413 475 38,000  Level Fort Worth Center
08:12AM 33.2997 -94.5528 309° West 413 475 38,000  Level Fort Worth Center
08:13AM 33.3711 -94.6575 311° West 413 475 38,000  Level Fort Worth Center
08:14AM 33.4461 -94.7597 308° West 413 475 38,000  Level Fort Worth Center
08:15AM 33.5153 -94.8647 309° West 413 475 38,000  Level Fort Worth Center
08:16AM 33.5861 -94.9700 313° West 413 475 38,000  Level Fort Worth Center
08:17AM 33.6503 -95.0531 309° West 413 475 38,000  Level Fort Worth Center
08:18AM 33.7256 -95.1658 310° West 413 475 38,000  Level Fort Worth Center
08:19AM 33.7983 -95.2689 308° West 413 475 38,000  Level Fort Worth Center
08:20AM 33.8667 -95.3747 310° West 413 475 38,000  Level Fort Worth Center
08:21AM 33.9394 -95.4783 310° West 413 475 38,000  Level Fort Worth Center
08:22AM 34.0119 -95.5819 309° West 413 475 38,000  Level Fort Worth Center
08:23AM 34.0886 -95.6981 308° West 419 482 38,000  Level Fort Worth Center
08:24AM 34.1569 -95.8047 311° West 407 468 38,000  Level Fort Worth Center
08:25AM 34.2228 -95.8964 309° West 407 468 38,000  Level Fort Worth Center
08:26AM 34.2928 -96.0008 310° West 407 468 38,000  Level Fort Worth Center
08:27AM 34.3628 -96.1028 308° West 402 463 38,000  Level Fort Worth Center
08:28AM 34.4306 -96.2075 307° West 402 463 38,000  Level Fort Worth Center
08:29AM 34.4983 -96.3150 307° West 397 457 38,000  Level Fort Worth Center
08:30AM 34.5658 -96.4225 307° West 397 457 38,000  Level Fort Worth Center
08:31AM 34.6333 -96.5303 308° West 402 463 38,000  Level Fort Worth Center
08:32AM 34.7094 -96.6506 307° West 402 463 38,000  Level Fort Worth Center
08:33AM 34.7767 -96.7589 308° West 407 468 38,000  Level Fort Worth Center
08:34AM 34.8439 -96.8644 307° West 407 468 38,000  Level Fort Worth Center
08:35AM 34.9133 -96.9756 307° West 407 468 38,000  Level Fort Worth Center
08:36AM 34.9803 -97.0842 307° West 407 468 38,000  Level Fort Worth Center
08:37AM 35.0411 -97.1828 308° West 402 463 38,000  Level Fort Worth Center
08:38AM 35.1100 -97.2917 308° West 402 463 38,000  Level Fort Worth Center
08:39AM 35.1872 -97.4111 304° West 402 463 38,000  Level Fort Worth Center
08:40AM 35.2436 -97.5153 307° West 407 468 38,000  Level Fort Worth Center
08:41AM 35.3183 -97.6375 308° West 407 468 38,000  Level Fort Worth Center
08:42AM 35.3869 -97.7447 308° West 407 468 38,000  Level Fort Worth Center
08:43AM 35.4556 -97.8544 307° West 407 468 38,000  Level Fort Worth Center
08:44AM 35.5217 -97.9619 307° West 407 468 38,000  Level Fort Worth Center
08:45AM 35.5775 -98.0542 307° West 407 468 38,000  Level Fort Worth Center
08:47AM 35.7189 -98.2872 307° West 394 453 38,000  Level Kansas City Center
08:48AM 35.7922 -98.4086 306° West 394 453 38,000  Level Kansas City Center
08:49AM 35.8594 -98.5219 306° West 404 465 38,000  Level Kansas City Center
08:50AM 35.9244 -98.6331 307° West 404 465 38,000  Level Kansas City Center
08:51AM 35.9936 -98.7472 306° West 404 465 38,000  Level Kansas City Center
08:52AM 36.0603 -98.8611 307° West 409 471 38,000  Level Kansas City Center
08:53AM 36.1292 -98.9756 306° West 409 471 38,000  Level Kansas City Center
08:54AM 36.1978 -99.0928 307° West 415 478 38,000  Level Kansas City Center
08:55AM 36.2606 -99.1969 305° West 422 486 38,000  Level Kansas City Center
08:56AM 36.3247 -99.3117 306° West 422 486 38,000  Level Kansas City Center
08:57AM 36.3931 -99.4294 306° West 417 480 38,000  Level Kansas City Center
08:58AM 36.4592 -99.5447 306° West 417 480 38,000  Level Kansas City Center
08:59AM 36.5269 -99.6628 306° West 417 480 38,000  Level Kansas City Center
09:00AM 36.5969 -99.7814 305° West 417 480 38,000 -180 Level Kansas City Center
09:01AM 36.6683 -99.9081 305° West 417 480 37,700 -660 Descending Kansas City Center
09:02AM 36.7339 -100.0267 307° West 417 480 36,700 -900 Descending Kansas City Center
09:03AM 36.8056 -100.1458 306° West 417 480 36,000 -360 Descending Kansas City Center
09:04AM 36.8750 -100.2653 305° West 422 486 36,000  Level Kansas City Center
09:05AM 36.9422 -100.3847 305° West 429 494 36,000  Level Kansas City Center
09:06AM 37.0056 -100.4961 305° West 429 494 36,000  Level Kansas City Center
09:07AM 37.0800 -100.6294 305° West 429 494 36,000  Level Kansas City Center
09:08AM 37.1489 -100.7525 304° West 429 494 36,000  Level Kansas City Center
09:09AM 37.2172 -100.8781 304° West 440 506 36,000  Level Kansas City Center
09:10AM 37.2781 -100.9903 305° West 440 506 36,000  Level Kansas City Center
09:11AM 37.3483 -101.1164 305° West 440 506 36,000  Level Kansas City Center
09:12AM 37.4258 -101.2564 305° West 445 512 36,000  Level Kansas City Center
09:13AM 37.4958 -101.3833 304° West 445 512 36,000  Level Kansas City Center
09:14AM 37.5656 -101.5128 304° West 445 512 36,000  Level Kansas City Center
09:15AM 37.6722 -101.7111 305° West 453 521 36,000  Level Denver Center
09:16AM 37.7444 -101.8428 305° West 453 521 36,000  Level Denver Center
09:17AM 37.8208 -101.9822 305° West 448 516 36,000  Level Denver Center
09:18AM 37.8906 -102.1094 303° West 448 516 36,000  Level Denver Center
09:19AM 37.9511 -102.2269 304° West 448 516 36,000  Level Denver Center
09:20AM 38.0206 -102.3572 304° West 448 516 36,000  Level Denver Center
09:21AM 38.0967 -102.5006 304° West 448 516 36,000  Level Denver Center
09:22AM 38.1656 -102.6314 308° West 448 516 36,000  Level Denver Center
09:23AM 38.2339 -102.7414 309° West 448 516 36,000  Level Denver Center
09:24AM 38.3194 -102.8744 310° West 443 510 36,000  Level Denver Center
09:25AM 38.3983 -102.9925 312° West 443 510 36,000  Level Denver Center
09:26AM 38.4811 -103.1103 309° West 443 510 36,000 -660 Level Denver Center
09:27AM 38.5508 -103.2211 313° West 443 510 34,700 -1,800 Descending Denver Center
09:28AM 38.6311 -103.3317 308° West 443 510 32,500 -2,160 Descending Denver Center
09:29AM 38.7075 -103.4561 310° West 443 510 30,400 -2,220 Descending Denver Center
09:30AM 38.7878 -103.5806 317° Northwest 432 497 28,100 -2,100 Descending Denver Center
09:31AM 38.8589 -103.6656 318° Northwest 400 460 26,300 -1,920 Descending Denver Center
09:32AM 38.9403 -103.7583 318° Northwest 386 444 24,300 -1,800 Descending Denver Center
09:33AM 39.0089 -103.8386 319° Northwest 381 438 22,700 -1,920 Descending Denver Center
09:34AM 39.0986 -103.9394 319° Northwest 364 419 20,500 -1,980 Descending Denver Center
09:35AM 39.1714 -104.0225 319° Northwest 358 412 18,800 -1,680 Descending Denver Center
09:36AM 39.2419 -104.1031 329° Northwest 343 395 17,200 -1,380 Descending Denver Center
09:37AM 39.3161 -104.1597 350° North 330 380 16,100 -1,200 Descending Denver Center
09:38AM 39.3978 -104.1786 359° North 298 343 14,900 -1,500 Descending Denver Center
09:39AM 39.4769 -104.1811 359° North 289 333 13,100 -960 Descending Denver Center
09:40AM 39.5606 -104.1839 359° North 289 333 13,000 -60 Descending Denver Center
09:41AM 39.6419 -104.1864 357° North 289 333 13,000 -60 Level Denver Center
09:42AM 39.7192 -104.1919 356° North 284 327 12,900 -600 Descending Denver Center
09:43AM 39.7881 -104.1978 352° North 260 299 11,800 -1,080 Descending Denver Center
09:44AM 39.8531 -104.2092 291° West 239 275 10,800 -1,080 Descending Denver Center
09:45AM 39.8731 -104.2789 274° West 182 209 9,700 -840 Descending Denver Center
09:46AM 39.8764 -104.3492 256° West 203 234 9,200 -540 Descending Denver Center
09:47AM 39.8667 -104.4000 285° West 225 259 8,900 -1,200 Descending Denver TRACON
09:48AM 39.8833 -104.4833 270° West 208 239 7,300 -1,200 Descending Denver TRACON
09:49AM 39.8833 -104.5500 270° West 159 183 6,400 -900 Descending Denver TRACON
09:50AM 39.8833 -104.6000 249° West 142 163 5,700 -780 Descending Denver TRACON
09:57AM 39.5902 -105.5734 69° East  Level Estimated
09:58AM 39.8500 -104.6667 69° East  Level FlightAware Approximate
09:59AM 39.8905 -104.5314 69° East  Level FlightAware Approximate